Time;durP1;ratioP1;P1;durP2;ratioP2;P2;SDS_P1;SDS_P2;PMS_P1;PMS_P2;Temp;Humidity;BMP_temperature;BMP_pressure;BME280_temperature;BME280_humidity;BME280_pressure;Samples;Min_cycle;Max_cycle;Signal;HPM_P1;HPM_P2
2022/02/14 00:02:02;;;;;;;18.30;10.23;;;;;;;2.50;59.80;96167.25;5026125;28;20041;-79
2022/02/14 00:04:28;;;;;;;16.08;10.95;;;;;;;2.50;60.07;96165.44;5025570;28;20029;-79
2022/02/14 00:06:53;;;;;;;15.80;9.93;;;;;;;2.47;59.68;96168.31;5025573;28;20420;-79
2022/02/14 00:09:19;;;;;;;16.40;10.10;;;;;;;2.44;59.86;96174.69;5026001;28;20026;-79
2022/02/14 00:11:44;;;;;;;17.55;9.35;;;;;;;2.53;59.90;96159.91;5024068;28;20535;-79
2022/02/14 00:14:10;;;;;;;20.10;10.55;;;;;;;2.54;59.60;96159.00;5024936;28;20492;-79
2022/02/14 00:16:35;;;;;;;17.63;10.13;;;;;;;2.61;59.51;96161.19;5025113;28;20026;-79
2022/02/14 00:19:01;;;;;;;15.68;10.20;;;;;;;2.58;59.18;96164.88;5026253;28;20027;-80
2022/02/14 00:21:26;;;;;;;15.80;9.82;;;;;;;2.58;60.16;96164.88;5025643;28;20029;-80
2022/02/14 00:23:52;;;;;;;14.45;9.60;;;;;;;2.68;59.23;96165.09;5025892;28;20025;-80
2022/02/14 00:26:17;;;;;;;17.60;9.45;;;;;;;2.58;59.63;96164.88;5025642;28;20029;-80
2022/02/14 00:28:43;;;;;;;15.07;9.35;;;;;;;2.67;58.87;96160.75;5025214;28;20021;-80
2022/02/14 00:31:08;;;;;;;16.40;9.80;;;;;;;2.64;59.38;96163.63;5025679;28;20033;-80
2022/02/14 00:33:34;;;;;;;16.70;9.52;;;;;;;2.64;59.37;96158.31;5025106;28;20022;-80
2022/02/14 00:35:59;;;;;;;17.85;9.43;;;;;;;2.62;59.95;96166.38;5025846;28;20488;-79
2022/02/14 00:38:25;;;;;;;16.42;9.60;;;;;;;2.56;59.99;96153.59;5025183;28;20025;-81
2022/02/14 00:40:50;;;;;;;21.95;10.13;;;;;;;2.51;60.14;96153.91;5025804;28;20025;-79
2022/02/14 00:43:16;;;;;;;16.17;9.32;;;;;;;2.61;59.48;96153.25;5025913;28;20105;-79
2022/02/14 00:45:41;;;;;;;16.60;9.57;;;;;;;2.53;59.67;96151.97;5025760;28;20025;-80
2022/02/14 00:48:07;;;;;;;15.50;9.18;;;;;;;2.58;59.79;96151.66;5025776;28;20048;-80
2022/02/14 00:50:33;;;;;;;16.30;9.48;;;;;;;2.58;60.03;96152.50;5025487;28;20018;-80
2022/02/14 00:52:58;;;;;;;19.35;9.50;;;;;;;2.66;59.53;96151.13;5025404;28;20037;-81
2022/02/14 00:55:24;;;;;;;14.88;9.30;;;;;;;2.64;59.97;96148.59;5007532;28;20095;-80
2022/02/14 00:57:49;;;;;;;15.05;8.65;;;;;;;2.71;59.05;96143.66;5025666;28;20034;-80
2022/02/14 01:00:15;;;;;;;15.85;8.48;;;;;;;2.71;58.50;96139.22;5026197;28;20037;-80
2022/02/14 01:02:41;;;;;;;12.27;7.75;;;;;;;2.62;58.52;96137.25;5025763;28;20060;-80
2022/02/14 01:05:07;;;;;;;13.98;8.30;;;;;;;2.46;59.38;96130.41;5026046;28;20021;-80
2022/02/14 01:07:32;;;;;;;17.80;8.25;;;;;;;2.47;59.93;96137.38;5024128;28;20049;-80
2022/02/14 01:10:00;;;;;;;14.15;9.48;;;;;;;2.54;59.12;96132.50;5027992;28;20484;-81
2022/02/14 01:12:26;;;;;;;15.48;8.73;;;;;;;2.44;59.26;96127.00;5028711;28;20083;-80
2022/02/14 01:14:52;;;;;;;21.50;9.48;;;;;;;2.35;59.40;96130.31;5029113;28;20041;-80
2022/02/14 01:17:17;;;;;;;14.68;9.68;;;;;;;2.21;59.92;96124.19;5028787;28;20025;-79
2022/02/14 01:19:43;;;;;;;17.25;9.35;;;;;;;2.29;59.48;96120.16;5028761;28;20045;-80
2022/02/14 01:22:09;;;;;;;16.30;9.85;;;;;;;2.30;59.53;96122.72;5028808;28;20033;-80
2022/02/14 01:24:35;;;;;;;16.45;9.73;;;;;;;2.31;59.67;96116.44;5028536;28;20111;-80
2022/02/14 01:27:03;;;;;;;19.10;10.10;;;;;;;2.29;59.94;96113.06;5028977;28;20037;-79
2022/02/14 01:29:30;;;;;;;16.33;10.13;;;;;;;2.28;59.96;96113.16;5028336;28;20025;-79
2022/02/14 01:31:55;;;;;;;17.63;10.20;;;;;;;2.27;60.25;96109.69;5028325;28;20060;-79
2022/02/14 01:34:21;;;;;;;15.52;8.88;;;;;;;2.09;61.24;96117.13;5028305;28;20324;-79
2022/02/14 01:36:46;;;;;;;17.27;9.05;;;;;;;2.02;60.97;96116.69;5028726;28;20037;-80
2022/02/14 01:39:12;;;;;;;15.77;9.07;;;;;;;1.96;60.89;96115.31;5027596;28;20460;-79
2022/02/14 01:41:37;;;;;;;17.98;9.80;;;;;;;2.01;60.97;96114.16;5028944;28;20428;-78
2022/02/14 01:44:03;;;;;;;16.70;9.68;;;;;;;1.96;61.86;96111.81;5027822;28;20660;-79
2022/02/14 01:46:28;;;;;;;18.00;10.25;;;;;;;1.98;61.31;96112.56;5028219;28;20036;-80
2022/02/14 01:48:54;;;;;;;18.27;10.10;;;;;;;1.94;61.57;96105.78;5027956;28;20040;-78
2022/02/14 01:51:19;;;;;;;19.63;10.50;;;;;;;1.90;61.46;96102.53;5027752;28;20040;-78
2022/02/14 01:53:44;;;;;;;17.27;9.85;;;;;;;1.92;61.41;96099.78;5028073;28;20030;-79
2022/02/14 01:56:13;;;;;;;16.25;9.73;;;;;;;1.94;61.01;96093.41;5027637;28;20037;-79
2022/02/14 01:58:38;;;;;;;16.38;9.70;;;;;;;1.92;61.60;96089.19;5028286;28;20048;-80
2022/02/14 02:01:04;;;;;;;19.50;9.82;;;;;;;2.00;61.62;96083.38;5027509;28;20029;-81
2022/02/14 02:03:29;;;;;;;17.38;10.23;;;;;;;1.98;61.07;96078.19;5028249;28;20032;-80
2022/02/14 02:05:55;;;;;;;19.00;9.77;;;;;;;1.95;61.28;96076.56;5027878;28;20021;-80
2022/02/14 02:08:21;;;;;;;22.63;10.05;;;;;;;1.93;61.53;96083.78;5027155;28;20030;-79
2022/02/14 02:10:46;;;;;;;15.38;9.57;;;;;;;2.01;61.53;96077.09;5028148;28;20462;-80
2022/02/14 02:13:11;;;;;;;20.00;10.38;;;;;;;2.00;61.75;96081.53;5026614;28;20038;-79
2022/02/14 02:15:37;;;;;;;16.17;10.07;;;;;;;1.98;61.43;96080.81;5026673;28;20040;-80
2022/02/14 02:18:06;;;;;;;18.40;10.82;;;;;;;1.91;62.07;96082.19;5027743;28;20083;-79
2022/02/14 02:20:31;;;;;;;16.70;9.57;;;;;;;1.88;61.93;96079.75;5025788;28;20129;-80
2022/02/14 02:22:56;;;;;;;18.35;10.57;;;;;;;1.95;61.51;96068.63;5027456;28;20480;-79
2022/02/14 02:25:22;;;;;;;16.20;9.82;;;;;;;1.92;61.76;96063.56;5027346;28;20025;-79
2022/02/14 02:27:47;;;;;;;17.75;10.32;;;;;;;1.92;62.25;96066.22;5028029;28;20032;-80
2022/02/14 02:30:17;;;;;;;15.10;9.38;;;;;;;1.91;61.75;96066.31;5026995;28;20041;-80
2022/02/14 02:32:43;;;;;;;15.95;9.50;;;;;;;1.89;62.09;96063.78;5027848;28;20113;-80
2022/02/14 02:35:08;;;;;;;16.65;9.38;;;;;;;1.90;62.23;96064.63;5026901;28;20033;-81
2022/02/14 02:37:34;;;;;;;15.23;9.63;;;;;;;1.91;61.89;96066.31;5027544;28;20021;-80
2022/02/14 02:40:01;;;;;;;18.23;10.50;;;;;;;1.92;62.06;96065.38;5026008;28;20040;-80
2022/02/14 02:42:26;;;;;;;14.55;9.68;;;;;;;1.95;61.73;96058.06;5027170;28;20483;-80
2022/02/14 02:44:52;;;;;;;16.83;10.75;;;;;;;1.90;62.52;96067.28;5026083;28;20033;-80
2022/02/14 02:47:18;;;;;;;18.52;10.13;;;;;;;1.93;62.61;96069.72;5026993;28;20028;-79
2022/02/14 02:49:44;;;;;;;17.17;10.13;;;;;;;2.04;62.57;96068.94;5025550;28;20476;-79
2022/02/14 02:52:10;;;;;;;18.80;9.88;;;;;;;2.03;61.72;96078.69;5026416;28;20022;-80
2022/02/14 02:54:36;;;;;;;19.33;10.18;;;;;;;2.02;61.89;96074.34;5026066;28;20155;-80
2022/02/14 02:57:01;;;;;;;16.25;9.77;;;;;;;2.00;62.52;96070.97;5025320;28;20025;-80
2022/02/14 02:59:28;;;;;;;16.23;9.90;;;;;;;2.02;61.58;96084.94;5028017;28;20236;-80
2022/02/14 03:01:53;;;;;;;16.73;10.00;;;;;;;1.97;62.28;96072.03;5027276;28;20041;-79
2022/02/14 03:04:19;;;;;;;19.38;9.57;;;;;;;1.93;62.64;96081.16;5026757;28;20086;-80
2022/02/14 03:06:44;;;;;;;20.67;10.90;;;;;;;1.96;62.64;96072.13;5027009;28;20504;-80
2022/02/14 03:09:10;;;;;;;17.23;9.90;;;;;;;2.00;62.70;96076.25;5026439;28;20030;-80
2022/02/14 03:11:36;;;;;;;17.05;9.95;;;;;;;2.01;61.94;96064.72;5026965;28;20040;-80
2022/02/14 03:14:01;;;;;;;17.33;10.70;;;;;;;2.09;62.47;96066.84;5025862;28;20037;-80
2022/02/14 03:16:27;;;;;;;17.25;10.00;;;;;;;2.14;61.74;96059.41;5026840;28;20079;-80
2022/02/14 03:18:53;;;;;;;14.20;9.85;;;;;;;2.17;62.02;96061.00;5026638;28;20052;-81
2022/02/14 03:21:21;;;;;;;17.67;10.35;;;;;;;2.17;61.94;96061.00;5025949;28;20033;-79
2022/02/14 03:23:47;;;;;;;17.50;10.63;;;;;;;2.14;61.50;96055.91;5027086;28;20036;-79
2022/02/14 03:26:13;;;;;;;16.38;10.43;;;;;;;2.06;61.91;96052.00;5024926;28;20036;-79
2022/02/14 03:28:39;;;;;;;18.98;10.68;;;;;;;1.98;62.97;96062.31;5025123;28;20036;-79
2022/02/14 03:31:04;;;;;;;17.52;10.77;;;;;;;2.04;62.43;96053.94;5025634;28;20025;-80
2022/02/14 03:33:30;;;;;;;18.92;11.20;;;;;;;1.92;62.99;96057.44;5025180;28;20407;-80
2022/02/14 03:35:55;;;;;;;17.85;10.68;;;;;;;1.91;62.59;96053.09;5026016;28;20507;-80
2022/02/14 03:38:21;;;;;;;15.13;9.88;;;;;;;1.91;62.89;96051.31;5025795;28;20036;-80
2022/02/14 03:40:46;;;;;;;21.75;10.40;;;;;;;1.98;62.75;96043.78;5026030;28;20044;-80
2022/02/14 03:43:12;;;;;;;18.45;10.90;;;;;;;2.01;62.60;96053.28;5026228;28;20037;-80
2022/02/14 03:45:39;;;;;;;17.80;11.07;;;;;;;1.88;62.59;96051.53;5026408;28;20028;-82
2022/02/14 03:48:05;;;;;;;22.98;11.32;;;;;;;1.73;63.26;96048.13;5025881;28;20033;-80
2022/02/14 03:50:30;;;;;;;19.85;12.15;;;;;;;1.39;64.89;96048.66;5007834;28;20029;-81
2022/02/14 03:52:56;;;;;;;17.85;10.93;;;;;;;1.38;65.08;96054.06;5024477;28;20116;-79
2022/02/14 03:55:21;;;;;;;20.42;10.57;;;;;;;1.25;65.33;96052.25;5026473;28;20030;-80
2022/02/14 03:57:47;;;;;;;23.25;11.05;;;;;;;1.31;65.15;96059.75;5025858;28;20041;-80
2022/02/14 04:00:13;;;;;;;20.23;10.52;;;;;;;1.34;64.74;96048.97;5026172;28;20069;-81
2022/02/14 04:02:39;;;;;;;19.83;10.35;;;;;;;1.33;65.31;96043.78;5024794;28;20042;-80
2022/02/14 04:05:05;;;;;;;18.45;11.35;;;;;;;1.21;65.21;96048.13;5025718;28;20429;-80
2022/02/14 04:07:30;;;;;;;19.42;10.23;;;;;;;1.34;65.00;96048.97;5025195;28;20052;-79
2022/02/14 04:09:56;;;;;;;18.08;11.23;;;;;;;1.51;64.73;96047.00;5024002;28;20060;-80
2022/02/14 04:12:22;;;;;;;21.10;11.02;;;;;;;1.51;64.82;96041.69;5024257;28;20108;-79
2022/02/14 04:14:47;;;;;;;17.95;10.95;;;;;;;1.59;64.01;96049.09;5024151;28;20064;-79
2022/02/14 04:17:12;;;;;;;18.05;10.40;;;;;;;1.64;64.04;96046.13;5023849;28;20064;-80
2022/02/14 04:19:38;;;;;;;18.17;10.07;;;;;;;1.69;64.03;96041.38;5024738;28;20539;-79
2022/02/14 04:22:03;;;;;;;19.75;10.82;;;;;;;1.72;63.40;96042.03;5024429;28;20057;-79
2022/02/14 04:24:29;;;;;;;19.23;11.13;;;;;;;1.60;63.99;96041.06;5025348;28;20026;-78
2022/02/14 04:26:54;;;;;;;22.88;12.23;;;;;;;1.60;64.52;96035.78;5023658;28;20064;-80
2022/02/14 04:29:20;;;;;;;23.98;11.60;;;;;;;1.68;64.35;96026.44;5024877;28;20025;-78
2022/02/14 04:31:45;;;;;;;21.55;10.80;;;;;;;1.83;63.07;96033.31;5023635;28;20033;-79
2022/02/14 04:34:11;;;;;;;18.85;10.23;;;;;;;1.82;63.68;96036.91;5023637;28;20033;-80
2022/02/14 04:36:36;;;;;;;16.30;9.50;;;;;;;1.81;63.24;96032.56;5024018;28;20079;-79
2022/02/14 04:39:02;;;;;;;17.23;10.25;;;;;;;1.87;63.05;96030.47;5024817;28;20175;-80
2022/02/14 04:41:27;;;;;;;18.17;11.55;;;;;;;1.91;62.97;96039.88;5025009;28;20393;-80
2022/02/14 04:43:52;;;;;;;20.42;11.73;;;;;;;1.81;63.35;96050.25;5027906;28;20026;-79
2022/02/14 04:46:18;;;;;;;19.15;12.38;;;;;;;1.84;63.95;96050.03;5029159;28;20037;-80
2022/02/14 04:48:44;;;;;;;19.25;11.00;;;;;;;1.79;63.39;96047.69;5028807;28;20447;-79
2022/02/14 04:51:10;;;;;;;17.83;11.35;;;;;;;1.73;64.57;96045.50;5028627;28;20024;-79
2022/02/14 04:53:35;;;;;;;22.38;10.85;;;;;;;1.83;63.59;96049.19;5028189;28;20030;-79
2022/02/14 04:56:01;;;;;;;19.25;10.63;;;;;;;1.89;63.42;96053.19;5028163;28;20045;-80
2022/02/14 04:58:26;;;;;;;17.75;10.73;;;;;;;1.69;63.91;96051.97;5028404;28;20033;-80
2022/02/14 05:00:52;;;;;;;17.38;10.90;;;;;;;1.54;65.29;96048.56;5028648;28;20033;-80
2022/02/14 05:03:18;;;;;;;20.60;11.25;;;;;;;1.63;64.87;96058.50;5028814;28;20033;-80
2022/02/14 05:05:43;;;;;;;20.92;11.38;;;;;;;1.65;64.57;96050.47;5027208;28;20492;-77
2022/02/14 05:08:08;;;;;;;20.83;11.80;;;;;;;1.63;65.27;96053.22;5028391;28;20093;-79
2022/02/14 05:10:34;;;;;;;20.00;10.93;;;;;;;1.63;64.37;96053.22;5026298;28;20021;-79
2022/02/14 05:12:59;;;;;;;20.40;11.30;;;;;;;1.69;64.33;96058.06;5028240;28;20033;-79
2022/02/14 05:15:25;;;;;;;18.75;11.27;;;;;;;1.71;64.73;96057.97;5027095;28;20029;-80
2022/02/14 05:17:50;;;;;;;24.60;12.52;;;;;;;1.70;64.70;96056.28;5028133;28;20036;-79
2022/02/14 05:20:16;;;;;;;23.15;12.43;;;;;;;1.68;64.75;96052.88;5027866;28;20029;-80
2022/02/14 05:22:41;;;;;;;21.20;12.00;;;;;;;1.75;64.69;96063.91;5027809;28;20037;-80
2022/02/14 05:25:07;;;;;;;23.58;13.07;;;;;;;1.82;64.33;96058.06;5027567;28;20036;-79
2022/02/14 05:27:32;;;;;;;25.17;13.70;;;;;;;1.89;63.83;96066.44;5025422;28;20021;-80
2022/02/14 05:29:58;;;;;;;22.02;12.95;;;;;;;1.95;64.47;96057.22;5025644;28;20040;-80
2022/02/14 05:32:23;;;;;;;26.45;12.70;;;;;;;2.01;64.28;96061.22;5033033;28;20022;-78
2022/02/14 05:34:49;;;;;;;22.92;12.27;;;;;;;2.04;63.91;96055.72;5028175;28;20034;-77
2022/02/14 05:37:14;;;;;;;28.75;13.98;;;;;;;2.12;63.41;96063.97;5022193;28;20033;-78
2022/02/14 05:39:44;;;;;;;23.50;13.25;;;;;;;2.07;63.14;96066.94;5027100;28;20021;-79
2022/02/14 05:42:10;;;;;;;18.83;11.35;;;;;;;2.04;63.88;96064.50;5027734;28;20470;-79
2022/02/14 05:44:35;;;;;;;19.48;11.32;;;;;;;2.17;62.73;96068.94;5028064;28;20544;-78
2022/02/14 05:47:03;;;;;;;20.05;12.82;;;;;;;2.18;63.47;96068.81;5029852;28;20037;-78
2022/02/14 05:49:29;;;;;;;25.95;12.43;;;;;;;2.25;64.09;96063.94;5027673;28;20029;-79
2022/02/14 05:51:54;;;;;;;22.15;13.50;;;;;;;2.33;64.75;96073.97;5034017;28;20045;-78
2022/02/14 05:54:20;;;;;;;26.23;15.48;;;;;;;2.42;64.21;96060.06;5022936;28;20030;-79
2022/02/14 05:56:45;;;;;;;24.10;14.15;;;;;;;2.41;63.39;96065.47;5026273;28;20079;-79
2022/02/14 05:59:11;;;;;;;21.17;12.95;;;;;;;2.45;63.15;96069.63;5025319;28;20091;-80
2022/02/14 06:01:36;;;;;;;23.58;13.50;;;;;;;2.44;63.77;96062.59;5025389;28;20029;-79
2022/02/14 06:04:02;;;;;;;23.60;14.48;;;;;;;2.53;63.75;96075.19;5024518;28;20048;-79
2022/02/14 06:06:27;;;;;;;22.95;14.02;;;;;;;2.55;64.02;96069.78;5024346;28;20044;-81
2022/02/14 06:08:53;;;;;;;26.73;14.75;;;;;;;2.64;63.69;96074.41;5026702;28;20488;-79
2022/02/14 06:11:18;;;;;;;23.52;14.00;;;;;;;2.62;64.09;96078.97;5024485;28;20029;-79
2022/02/14 06:13:44;;;;;;;31.90;15.02;;;;;;;2.67;64.20;96083.94;5007034;28;20034;-81
2022/02/14 06:16:09;;;;;;;24.90;14.07;;;;;;;2.69;64.17;96079.38;5020945;28;20103;-80
2022/02/14 06:18:35;;;;;;;26.90;13.68;;;;;;;2.68;64.28;96080.31;5029994;28;20022;-78
2022/02/14 06:21:00;;;;;;;20.95;13.27;;;;;;;2.71;64.42;96085.38;5043196;28;20033;-79
2022/02/14 06:23:27;;;;;;;23.17;13.90;;;;;;;2.61;64.85;96085.25;5023824;28;20032;-79
2022/02/14 06:25:52;;;;;;;24.30;14.40;;;;;;;2.61;66.00;96087.88;5024734;28;20032;-80
2022/02/14 06:28:18;;;;;;;24.15;14.68;;;;;;;2.57;65.86;96095.19;5022520;28;20965;-80
2022/02/14 06:30:45;;;;;;;26.10;14.90;;;;;;;2.56;66.05;96090.84;5026228;28;20037;-80
2022/02/14 06:33:12;;;;;;;26.10;15.90;;;;;;;2.58;66.23;96090.72;5024943;28;20496;-81
2022/02/14 06:35:37;;;;;;;23.63;14.88;;;;;;;2.51;66.58;96097.44;5023182;28;20021;-80
2022/02/14 06:38:03;;;;;;;25.50;14.32;;;;;;;2.52;66.49;96101.78;5022607;28;20033;-80
2022/02/14 06:40:28;;;;;;;22.77;14.38;;;;;;;2.43;67.47;96105.94;5022878;28;20025;-81
2022/02/14 06:42:54;;;;;;;25.70;14.52;;;;;;;2.47;67.17;96110.03;5025852;28;20030;-81
2022/02/14 06:45:19;;;;;;;28.42;15.57;;;;;;;2.40;67.96;96103.50;5022560;28;20025;-80
2022/02/14 06:47:45;;;;;;;26.67;14.85;;;;;;;2.37;67.80;96103.72;5030196;28;20040;-80
2022/02/14 06:50:10;;;;;;;23.48;15.27;;;;;;;2.39;67.48;96107.09;5021609;28;20036;-81
2022/02/14 06:52:36;;;;;;;27.33;14.98;;;;;;;2.32;67.81;96102.25;5032296;28;20131;-80
2022/02/14 06:55:03;;;;;;;24.58;14.20;;;;;;;2.31;68.24;96105.84;5028595;28;20064;-81
2022/02/14 06:57:30;;;;;;;22.83;14.43;;;;;;;2.25;68.91;96103.66;5022689;28;20025;-80
2022/02/14 06:59:55;;;;;;;26.95;16.65;;;;;;;2.28;68.93;96103.44;5026065;28;20167;-81
2022/02/14 07:02:21;;;;;;;27.50;15.82;;;;;;;2.28;69.08;96102.56;5023932;28;20037;-79
2022/02/14 07:04:46;;;;;;;28.48;15.52;;;;;;;2.31;69.46;96103.22;5028488;28;20103;-79
2022/02/14 07:07:18;;;;;;;26.63;15.93;;;;;;;2.31;69.59;96100.56;5021465;28;20143;-78
2022/02/14 07:09:47;;;;;;;24.73;15.53;;;;;;;2.25;69.59;96095.72;5031595;28;20029;-77
2022/02/14 07:12:12;;;;;;;31.17;17.25;;;;;;;2.21;69.86;96100.38;5029470;28;20030;-78
2022/02/14 07:14:38;;;;;;;31.63;16.92;;;;;;;2.17;69.87;96093.59;5022901;28;20061;-80
2022/02/14 07:17:03;;;;;;;31.33;15.98;;;;;;;2.26;69.36;96101.84;5023134;28;20021;-77
2022/02/14 07:19:29;;;;;;;34.80;17.45;;;;;;;2.28;69.59;96099.91;5021839;28;20044;-77
2022/02/14 07:21:54;;;;;;;37.15;19.15;;;;;;;2.21;69.95;96102.16;5007240;28;20533;-75
2022/02/14 07:24:20;;;;;;;30.75;17.52;;;;;;;2.26;70.14;96102.69;5021680;28;20027;-76
2022/02/14 07:26:45;;;;;;;34.60;17.77;;;;;;;2.26;70.31;96107.97;5023110;28;20095;-77
2022/02/14 07:29:10;;;;;;;30.60;17.33;;;;;;;2.31;69.75;96108.50;5022142;28;20034;-77
2022/02/14 07:31:36;;;;;;;33.28;18.60;;;;;;;2.29;70.45;96102.47;5028227;28;20086;-76
2022/02/14 07:34:01;;;;;;;31.27;17.30;;;;;;;2.32;69.91;96102.25;5037964;28;20483;-77
2022/02/14 07:36:27;;;;;;;33.33;18.42;;;;;;;2.37;69.56;96109.03;5022153;28;20068;-77
2022/02/14 07:38:53;;;;;;;28.92;17.83;;;;;;;2.36;70.10;96108.16;5024179;28;20030;-77
2022/02/14 07:41:19;;;;;;;32.42;19.40;;;;;;;2.34;70.14;96110.94;5020969;28;20045;-78
2022/02/14 07:43:44;;;;;;;32.72;20.33;;;;;;;2.31;70.54;96108.50;5023838;28;20037;-76
2022/02/14 07:46:10;;;;;;;35.05;19.52;;;;;;;2.30;70.33;96112.13;5023267;28;20060;-76
2022/02/14 07:48:36;;;;;;;28.98;18.20;;;;;;;2.35;70.45;96112.63;5022768;28;20032;-76
2022/02/14 07:51:02;;;;;;;33.95;19.35;;;;;;;2.29;70.56;96099.81;5023696;28;20058;-77
2022/02/14 07:53:28;;;;;;;35.83;18.67;;;;;;;2.28;70.42;96100.78;5024270;28;20030;-77
2022/02/14 07:55:53;;;;;;;29.00;17.42;;;;;;;2.34;70.29;96103.00;5024074;28;20028;-77
2022/02/14 07:58:19;;;;;;;32.13;18.83;;;;;;;2.32;70.76;96104.88;5022111;28;20040;-78
2022/02/14 08:00:44;;;;;;;32.35;18.17;;;;;;;2.37;70.33;96101.09;5024006;28;20029;-77
2022/02/14 08:03:09;;;;;;;33.35;18.58;;;;;;;2.34;70.56;96096.84;5023201;28;20029;-77
2022/02/14 08:05:35;;;;;;;33.47;18.30;;;;;;;2.35;70.94;96099.38;5024882;28;20057;-77
2022/02/14 08:08:00;;;;;;;39.42;19.30;;;;;;;2.37;70.09;96093.16;5023490;28;20432;-76
2022/02/14 08:10:26;;;;;;;31.23;18.20;;;;;;;2.42;70.21;96098.97;5025111;28;20404;-76
2022/02/14 08:12:52;;;;;;;33.90;17.35;;;;;;;2.39;70.13;96097.38;5024787;28;20488;-76
2022/02/14 08:15:17;;;;;;;26.50;16.35;;;;;;;2.45;70.40;96101.38;5025113;28;20533;-76
2022/02/14 08:17:43;;;;;;;29.20;16.75;;;;;;;2.47;70.39;96099.47;5027000;28;20099;-77
2022/02/14 08:20:09;;;;;;;33.80;17.00;;;;;;;2.47;70.24;96097.66;5026970;28;20037;-77
2022/02/14 08:22:34;;;;;;;30.45;16.25;;;;;;;2.50;70.35;96098.41;5027892;28;20026;-78
2022/02/14 08:24:59;;;;;;;25.92;16.75;;;;;;;2.49;70.80;96097.56;5028300;28;20018;-75
2022/02/14 08:27:25;;;;;;;26.63;15.63;;;;;;;2.57;69.69;96092.56;5029470;28;20530;-77
2022/02/14 08:29:53;;;;;;;26.35;16.92;;;;;;;2.52;69.91;96099.97;5026665;28;20632;-77
2022/02/14 08:32:19;;;;;;;25.50;15.57;;;;;;;2.57;69.54;96095.19;5029395;28;20094;-77
2022/02/14 08:34:44;;;;;;;26.48;16.17;;;;;;;2.49;69.92;96094.91;5029073;28;20420;-77
2022/02/14 08:37:11;;;;;;;26.70;16.08;;;;;;;2.53;70.18;96093.72;5028633;28;20033;-77
2022/02/14 08:39:37;;;;;;;28.67;17.60;;;;;;;2.51;70.44;96089.50;5028902;28;20558;-77
2022/02/14 08:42:03;;;;;;;30.55;17.63;;;;;;;2.55;70.24;96093.59;5026521;28;20030;-77
2022/02/14 08:44:28;;;;;;;30.38;16.90;;;;;;;2.57;70.34;96099.66;5029077;28;20088;-77
2022/02/14 08:46:54;;;;;;;27.67;16.70;;;;;;;2.55;70.15;96091.81;5027672;28;20029;-77
2022/02/14 08:49:24;;;;;;;30.70;16.60;;;;;;;2.57;70.21;96092.56;5028954;28;20068;-77
2022/02/14 08:51:52;;;;;;;28.38;17.20;;;;;;;2.62;70.27;96096.66;5028109;28;20030;-77
2022/02/14 08:54:18;;;;;;;28.48;17.27;;;;;;;2.69;69.88;96097.94;5027071;28;20029;-78
2022/02/14 08:56:43;;;;;;;35.05;17.90;;;;;;;2.68;69.86;96086.47;5028413;28;20037;-77
2022/02/14 08:59:09;;;;;;;31.48;17.13;;;;;;;2.79;69.68;96090.16;5027861;28;20092;-76
2022/02/14 09:01:34;;;;;;;33.17;19.08;;;;;;;2.84;69.16;96086.19;5028961;28;20395;-77
2022/02/14 09:04:00;;;;;;;34.47;19.55;;;;;;;2.81;69.61;96086.44;5026167;28;20429;-79
2022/02/14 09:06:27;;;;;;;34.90;19.55;;;;;;;2.92;69.09;96084.78;5027317;28;20045;-77
2022/02/14 09:08:53;;;;;;;35.03;19.50;;;;;;;2.89;68.91;96093.81;5027431;28;20479;-79
2022/02/14 09:11:19;;;;;;;38.38;19.98;;;;;;;2.99;68.77;96087.81;5027099;28;20588;-78
2022/02/14 09:13:44;;;;;;;36.40;20.85;;;;;;;3.07;67.82;96096.06;5026708;28;20053;-78
2022/02/14 09:16:10;;;;;;;39.25;21.80;;;;;;;3.02;67.99;96090.25;5027683;28;20033;-76
2022/02/14 09:18:35;;;;;;;39.17;22.50;;;;;;;3.01;68.63;96094.72;5028701;28;20083;-75
2022/02/14 09:21:01;;;;;;;38.13;22.08;;;;;;;3.05;68.75;96088.22;5026841;28;20033;-75
2022/02/14 09:23:27;;;;;;;35.25;21.80;;;;;;;3.13;68.99;96100.06;5026929;28;20060;-76
2022/02/14 09:25:53;;;;;;;39.33;21.67;;;;;;;3.17;67.91;96089.13;5025723;28;20500;-77
2022/02/14 09:28:18;;;;;;;38.17;21.80;;;;;;;3.15;68.21;96090.19;5027669;28;20068;-77
2022/02/14 09:30:44;;;;;;;37.35;21.60;;;;;;;3.08;68.24;96093.28;5027097;28;20464;-77
2022/02/14 09:33:09;;;;;;;38.88;22.20;;;;;;;3.08;68.24;96095.94;5027488;28;20484;-76
2022/02/14 09:35:35;;;;;;;43.20;21.70;;;;;;;3.06;69.31;96097.03;5028060;28;20546;-76
2022/02/14 09:38:02;;;;;;;39.72;23.17;;;;;;;3.09;69.16;96100.28;5026959;28;20036;-77
2022/02/14 09:40:28;;;;;;;44.15;24.60;;;;;;;3.07;69.59;96102.22;5027942;28;21894;-77
2022/02/14 09:42:54;;;;;;;43.65;24.58;;;;;;;3.11;69.74;96094.03;5026537;28;20052;-76
2022/02/14 09:45:23;;;;;;;41.30;24.38;;;;;;;3.11;69.74;96092.22;5026730;28;20131;-76
2022/02/14 09:47:58;;;;;;;41.70;24.25;;;;;;;3.18;69.77;96092.59;5027157;28;20030;-77
2022/02/14 09:50:24;;;;;;;49.60;24.73;;;;;;;3.22;69.46;96086.94;5027676;28;20035;-76
2022/02/14 09:52:49;;;;;;;39.58;23.55;;;;;;;3.32;68.86;96079.16;5027593;28;20026;-77
2022/02/14 09:55:15;;;;;;;43.10;25.02;;;;;;;3.31;69.05;96085.44;5025382;28;20033;-76
2022/02/14 09:57:40;;;;;;;48.17;25.48;;;;;;;3.39;67.56;96084.00;5027705;28;20033;-77
2022/02/14 10:00:08;;;;;;;50.10;25.73;;;;;;;3.33;68.99;96085.31;5025312;28;20079;-76
2022/02/14 10:02:35;;;;;;;41.90;24.40;;;;;;;3.21;69.26;96081.75;5026128;28;20505;-76
2022/02/14 10:05:04;;;;;;;44.80;24.50;;;;;;;3.26;70.17;96090.22;5026338;28;20515;-76
2022/02/14 10:07:48;;;;;;;46.45;24.85;;;;;;;3.38;70.32;96087.59;5027311;28;20095;-78
2022/02/14 10:10:20;;;;;;;39.13;23.90;;;;;;;3.45;69.30;96078.25;5027311;28;20045;-76
2022/02/14 10:12:59;;;;;;;44.47;24.77;;;;;;;3.44;70.02;96082.69;5026312;28;20040;-75
2022/02/14 10:15:25;;;;;;;46.30;23.92;;;;;;;3.48;70.09;96078.00;5011102;28;20096;-78
2022/02/14 10:17:52;;;;;;;40.85;24.95;;;;;;;3.54;69.75;96064.28;5026606;28;20494;-76
2022/02/14 10:20:22;;;;;;;44.05;25.65;;;;;;;3.57;68.95;96065.84;5026906;28;20506;-77
2022/02/14 10:22:55;;;;;;;44.85;26.00;;;;;;;3.63;70.06;96049.44;5026878;28;20163;-77
2022/02/14 10:25:45;;;;;;;47.55;26.75;;;;;;;3.67;69.83;96055.38;5026299;28;20022;-77
2022/02/14 10:28:20;;;;;;;40.67;23.33;;;;;;;3.69;68.01;96043.66;5027098;28;20048;-75
2022/02/14 10:31:02;;;;;;;41.10;24.73;;;;;;;3.69;68.55;96043.66;5025933;28;20060;-76
2022/02/14 10:33:48;;;;;;;40.28;23.48;;;;;;;3.90;67.83;96034.16;5026941;28;20029;-77
2022/02/14 10:36:32;;;;;;;43.55;25.40;;;;;;;3.93;68.54;96031.25;5027000;28;20028;-76
2022/02/14 10:39:16;;;;;;;41.53;23.83;;;;;;;3.82;67.70;96026.81;5025850;28;20045;-78
2022/02/14 10:41:46;;;;;;;40.30;23.60;;;;;;;3.88;68.08;96022.81;5026836;28;20248;-75
2022/02/14 10:47:15;;;;;;;35.22;22.65;;;;;;;3.94;67.92;96019.66;5011615;28;20471;-75
2022/02/14 10:49:41;;;;;;;38.03;23.70;;;;;;;4.05;67.43;96014.34;5026837;28;20025;-77
2022/02/14 10:52:09;;;;;;;40.70;23.67;;;;;;;3.61;67.56;96008.09;5025242;28;20518;-77
2022/02/14 10:54:36;;;;;;;35.83;20.95;;;;;;;3.47;68.73;96007.34;5025136;28;20491;-76
2022/02/14 10:57:01;;;;;;;41.13;24.02;;;;;;;3.22;69.73;96007.41;5025787;28;20350;-77
2022/02/14 10:59:29;;;;;;;38.90;22.80;;;;;;;3.16;70.64;96005.22;5026455;28;20398;-76
2022/02/14 11:01:54;;;;;;;35.63;21.83;;;;;;;3.34;71.27;96002.13;5026500;28;20469;-77
2022/02/14 11:04:19;;;;;;;38.63;21.92;;;;;;;3.61;70.00;96002.78;5025621;28;20029;-76
2022/02/14 11:06:45;;;;;;;32.42;20.88;;;;;;;3.74;69.10;96003.50;5026347;28;20048;-77
2022/02/14 11:09:11;;;;;;;40.20;21.15;;;;;;;3.89;69.52;95997.94;5023880;28;20029;-77
2022/02/14 11:11:37;;;;;;;34.80;21.40;;;;;;;4.00;69.44;95991.81;5008344;28;20064;-76
2022/02/14 11:14:03;;;;;;;32.35;20.88;;;;;;;4.13;68.51;95986.34;5024121;28;20057;-79
2022/02/14 11:16:29;;;;;;;35.85;21.35;;;;;;;4.17;67.59;95987.81;5024588;28;20032;-79
2022/02/14 11:18:54;;;;;;;34.60;21.45;;;;;;;4.14;69.41;95983.59;5008005;28;20355;-77
2022/02/14 11:21:20;;;;;;;34.97;19.92;;;;;;;4.16;67.52;95980.81;5007844;28;20404;-78
2022/02/14 11:23:51;;;;;;;32.40;20.63;;;;;;;4.19;67.66;95976.06;5008162;28;20499;-81
2022/02/14 11:26:17;;;;;;;34.03;20.48;;;;;;;4.19;66.80;95975.25;5007179;28;20067;-76